createdAt,value
2023-04-03T04:06:47.662Z,12.20
2023-04-03T08:06:50.840Z,18.37
2023-04-03T08:12:53.198Z,18.60
2023-04-03T08:18:57.232Z,18.30
2023-04-03T08:25:02.832Z,18.84
2023-04-03T08:31:13.896Z,18.91
2023-04-03T08:37:20.515Z,18.74
2023-04-03T08:44:09.108Z,18.77
2023-04-03T08:50:20.688Z,18.91
2023-04-03T08:56:26.485Z,18.92
2023-04-03T09:02:33.963Z,19.34
2023-04-03T09:09:18.851Z,18.93
2023-04-03T09:15:35.533Z,18.98
2023-04-03T09:21:44.361Z,19.14
2023-04-03T09:27:50.396Z,19.29
2023-04-03T09:33:58.334Z,19.17
2023-04-03T09:40:02.147Z,19.44
2023-04-03T09:46:42.223Z,19.51
2023-04-03T09:52:50.179Z,20.05
2023-04-03T09:59:05.000Z,19.33
2023-04-03T10:05:27.521Z,19.17
2023-04-03T10:11:33.265Z,19.47
2023-04-03T10:17:55.777Z,19.25
2023-04-03T10:24:37.745Z,19.53
2023-04-03T10:31:14.030Z,20.25
2023-04-03T10:37:37.938Z,20.28
2023-04-03T10:44:05.948Z,20.14
2023-04-03T10:50:42.334Z,20.44
2023-04-03T10:57:08.691Z,20.67
2023-04-03T11:03:38.314Z,20.64
2023-04-03T11:09:48.191Z,20.39
2023-04-03T11:15:55.778Z,20.33
2023-04-03T11:22:12.246Z,20.45
2023-04-03T11:28:20.468Z,20.39
2023-04-03T11:34:29.685Z,20.76
2023-04-03T11:40:38.178Z,20.67
2023-04-03T11:46:58.434Z,20.69
2023-04-03T11:53:03.162Z,20.29
2023-04-03T11:59:12.904Z,20.00
2023-04-03T12:05:31.699Z,19.80
2023-04-03T12:11:38.187Z,19.79
2023-04-03T12:17:42.719Z,19.88
2023-04-03T12:24:12.026Z,20.35
2023-04-03T12:30:27.996Z,20.28
2023-04-03T12:37:02.307Z,20.16
2023-04-03T12:43:32.155Z,20.40
2023-04-03T12:49:44.097Z,19.96
2023-04-03T12:55:51.277Z,19.87
2023-04-03T13:01:59.914Z,19.76
2023-04-03T13:08:06.296Z,19.76
2023-04-03T13:14:19.825Z,19.86
2023-04-03T13:20:27.830Z,19.38
2023-04-03T13:26:34.133Z,19.50
2023-04-03T13:32:37.351Z,19.52
2023-04-03T13:38:41.075Z,19.47
2023-04-03T13:44:49.171Z,19.30
2023-04-03T13:50:56.980Z,19.49
2023-04-03T13:57:02.519Z,19.25
2023-04-03T14:03:14.257Z,19.03
2023-04-03T14:09:19.128Z,19.10
2023-04-03T14:15:29.481Z,18.65
2023-04-03T14:21:31.678Z,18.80
2023-04-03T14:27:39.319Z,18.68
2023-04-03T14:33:41.881Z,18.47
2023-04-03T14:39:47.289Z,18.39
2023-04-03T14:45:51.361Z,18.25
2023-04-03T14:51:54.759Z,18.40
2023-04-03T14:57:57.006Z,18.39
2023-04-03T15:03:59.764Z,17.99
2023-04-03T15:10:18.245Z,17.98
2023-04-03T15:16:22.460Z,17.87
2023-04-03T15:22:26.161Z,17.68
2023-04-03T15:28:38.091Z,17.56
2023-04-03T15:34:40.850Z,17.36
2023-04-03T15:40:44.730Z,17.39
2023-04-03T15:46:50.106Z,17.20
2023-04-03T15:52:55.623Z,16.92
2023-04-03T15:58:59.976Z,16.68
2023-04-03T16:05:04.066Z,16.70
2023-04-03T16:11:06.323Z,16.49
2023-04-03T16:17:08.422Z,16.26
2023-04-03T16:23:10.715Z,16.28
2023-04-03T16:29:12.936Z,16.15
2023-04-03T16:35:16.694Z,16.20
2023-04-03T16:41:19.769Z,16.15
2023-04-03T16:47:22.021Z,16.03
2023-04-03T16:53:27.107Z,16.01
2023-04-03T16:59:29.751Z,15.92
2023-04-03T17:05:35.849Z,15.81
2023-04-03T17:11:39.612Z,15.79
2023-04-03T17:17:41.949Z,15.64
2023-04-03T17:23:48.081Z,15.52
2023-04-03T17:29:50.575Z,15.46
2023-04-03T17:35:53.194Z,15.38
2023-04-03T17:41:55.965Z,15.31
2023-04-03T17:47:58.714Z,15.17
2023-04-03T17:54:02.165Z,15.17
2023-04-03T18:00:06.600Z,15.20
2023-04-03T18:06:34.518Z,15.05
2023-04-03T18:12:38.080Z,14.85
2023-04-03T18:18:43.315Z,14.51
2023-04-03T18:24:46.189Z,14.27
2023-04-03T18:30:50.082Z,14.02
2023-04-03T18:36:52.722Z,13.99
2023-04-03T18:42:55.896Z,14.05
2023-04-03T18:48:58.214Z,13.93
2023-04-03T18:55:02.784Z,13.97
2023-04-03T19:01:06.850Z,13.88
2023-04-03T19:07:12.980Z,13.80
2023-04-03T19:13:19.135Z,13.62
2023-04-03T19:19:28.380Z,13.46
2023-04-03T19:25:33.077Z,13.27
2023-04-03T19:31:38.383Z,13.08
2023-04-03T19:37:40.611Z,12.71
2023-04-03T19:43:43.131Z,12.24
2023-04-03T19:49:46.309Z,12.05
2023-04-03T19:55:49.627Z,11.63
2023-04-03T20:01:53.295Z,11.44
2023-04-03T20:07:56.351Z,11.40
2023-04-03T20:13:58.663Z,11.26
2023-04-03T20:20:01.922Z,10.78
2023-04-03T20:26:11.218Z,10.29
2023-04-03T20:32:18.654Z,10.04
2023-04-03T20:38:23.577Z,9.64
2023-04-03T20:44:27.188Z,9.42
2023-04-03T20:50:30.541Z,9.22
2023-04-03T20:56:36.729Z,9.22
2023-04-03T21:02:41.568Z,9.09
2023-04-03T21:09:22.593Z,9.23
2023-04-03T21:16:00.165Z,9.17
2023-04-03T21:22:03.995Z,9.37
2023-04-03T21:28:07.486Z,9.18
2023-04-03T21:34:14.286Z,9.03
2023-04-03T21:40:17.050Z,8.80
2023-04-03T21:46:39.304Z,8.68
2023-04-03T21:52:42.629Z,8.61
2023-04-03T21:58:46.856Z,8.54
2023-04-03T22:04:50.198Z,8.35
2023-04-03T22:11:01.325Z,8.14
2023-04-03T22:17:04.597Z,7.99
2023-04-03T22:23:06.769Z,8.04
2023-04-03T22:29:22.192Z,7.92
2023-04-03T22:35:24.908Z,7.82
2023-04-03T22:41:28.157Z,7.90
2023-04-03T22:47:32.180Z,7.87
2023-04-03T22:53:36.541Z,7.72
2023-04-03T22:59:39.393Z,7.94
2023-04-03T23:05:42.857Z,7.99
2023-04-03T23:11:45.880Z,8.01
2023-04-03T23:18:08.470Z,8.10
2023-04-03T23:24:11.860Z,7.97
2023-04-03T23:30:14.092Z,7.91
2023-04-03T23:36:17.842Z,7.87
2023-04-03T23:42:21.768Z,7.80
2023-04-03T23:48:24.499Z,7.81
2023-04-03T23:54:26.747Z,7.77
